createdAt,value
2019-03-31T00:01:40.299Z,16.15
2019-03-31T00:04:07.519Z,15.60
2019-03-31T00:06:34.780Z,18.90
2019-03-31T00:09:02.005Z,20.77
2019-03-31T00:11:29.263Z,25.52
2019-03-31T00:13:56.484Z,25.15
2019-03-31T00:16:23.703Z,15.95
2019-03-31T00:18:50.923Z,27.02
2019-03-31T00:21:18.168Z,27.30
2019-03-31T00:23:45.390Z,21.17
2019-03-31T00:26:12.618Z,24.32
2019-03-31T00:28:39.843Z,19.45
2019-03-31T00:31:07.156Z,24.02
2019-03-31T00:33:34.389Z,37.15
2019-03-31T00:36:01.598Z,21.00
2019-03-31T00:38:28.822Z,21.05
2019-03-31T00:40:56.057Z,19.40
2019-03-31T00:43:23.275Z,18.92
2019-03-31T00:45:50.505Z,24.50
2019-03-31T00:48:17.722Z,30.45
2019-03-31T00:50:44.966Z,23.92
2019-03-31T00:53:12.210Z,26.35
2019-03-31T00:55:39.410Z,28.12
2019-03-31T00:58:06.734Z,20.55
2019-03-31T01:00:48.188Z,57.13
2019-03-31T01:03:15.551Z,21.17
2019-03-31T01:05:43.744Z,24.63
2019-03-31T01:08:11.641Z,22.30
2019-03-31T01:10:38.923Z,18.70
2019-03-31T01:13:06.219Z,22.10
2019-03-31T01:15:33.979Z,26.25
2019-03-31T01:18:01.548Z,22.67
2019-03-31T01:20:28.762Z,17.15
2019-03-31T01:22:55.994Z,24.05
2019-03-31T01:25:23.283Z,28.95
2019-03-31T01:27:50.524Z,25.52
2019-03-31T01:30:18.712Z,23.73
2019-03-31T01:32:46.018Z,29.07
2019-03-31T01:35:13.471Z,23.67
2019-03-31T01:37:40.699Z,23.45
2019-03-31T01:40:07.990Z,23.80
2019-03-31T01:42:35.211Z,22.70
2019-03-31T01:45:02.439Z,25.05
2019-03-31T01:47:29.676Z,28.02
2019-03-31T01:49:56.910Z,21.35
2019-03-31T01:52:24.128Z,21.85
2019-03-31T01:54:51.354Z,20.72
2019-03-31T01:57:18.574Z,21.27
2019-03-31T01:59:45.801Z,24.40
2019-03-31T02:02:14.659Z,21.95
2019-03-31T02:04:41.887Z,22.98
2019-03-31T02:07:09.128Z,21.65
2019-03-31T02:09:36.332Z,21.65
2019-03-31T02:12:03.553Z,29.07
2019-03-31T02:14:30.783Z,16.37
2019-03-31T02:16:58.001Z,22.45
2019-03-31T02:19:25.252Z,23.67
2019-03-31T02:21:52.471Z,22.00
2019-03-31T02:24:19.694Z,20.92
2019-03-31T02:26:46.920Z,22.30
2019-03-31T02:29:14.150Z,20.97
2019-03-31T02:31:41.364Z,20.75
2019-03-31T02:34:08.594Z,18.55
2019-03-31T02:36:35.806Z,19.10
2019-03-31T02:39:04.747Z,18.62
2019-03-31T02:41:32.096Z,23.00
2019-03-31T02:43:59.328Z,18.82
2019-03-31T02:46:26.539Z,22.05
2019-03-31T02:48:53.769Z,23.45
2019-03-31T02:51:21.012Z,19.48
2019-03-31T02:53:48.327Z,24.65
2019-03-31T02:56:16.574Z,22.45
2019-03-31T02:58:44.054Z,25.27
2019-03-31T03:01:11.931Z,22.58
2019-03-31T03:03:39.140Z,19.42
2019-03-31T03:06:06.721Z,18.55
2019-03-31T03:08:34.230Z,19.45
2019-03-31T03:11:02.572Z,17.10
2019-03-31T03:13:30.047Z,24.12
2019-03-31T03:16:04.837Z,19.55
2019-03-31T03:18:32.146Z,20.52
2019-03-31T03:20:59.354Z,17.95
2019-03-31T03:23:26.571Z,21.42
2019-03-31T03:25:56.498Z,28.30
2019-03-31T03:28:22.732Z,22.15
2019-03-31T03:30:50.020Z,26.02
2019-03-31T03:33:18.357Z,17.70
2019-03-31T03:35:46.433Z,18.57
2019-03-31T03:38:13.686Z,18.27
2019-03-31T03:40:40.921Z,21.57
2019-03-31T03:43:08.136Z,18.23
2019-03-31T03:45:35.361Z,22.42
2019-03-31T03:48:02.574Z,32.85
2019-03-31T03:50:29.797Z,21.07
2019-03-31T03:52:57.014Z,21.97
2019-03-31T03:55:24.247Z,18.70
2019-03-31T03:57:51.488Z,20.90
2019-03-31T04:00:18.711Z,18.65
2019-03-31T04:02:45.971Z,17.82
2019-03-31T04:05:13.196Z,20.52
2019-03-31T04:07:40.421Z,20.25
2019-03-31T04:10:09.223Z,27.67
2019-03-31T04:12:36.428Z,27.37
2019-03-31T04:15:03.725Z,21.87
2019-03-31T04:17:31.364Z,21.60
2019-03-31T04:19:58.632Z,18.67
2019-03-31T04:22:25.855Z,22.40
2019-03-31T04:24:53.090Z,22.70
2019-03-31T04:27:20.316Z,22.50
2019-03-31T04:29:47.528Z,17.32
2019-03-31T04:32:14.748Z,18.87
2019-03-31T04:34:41.965Z,17.42
2019-03-31T04:37:09.215Z,28.45
2019-03-31T04:39:36.434Z,17.80
2019-03-31T04:42:03.660Z,15.65
2019-03-31T04:44:30.878Z,18.67
2019-03-31T04:46:58.110Z,22.60
2019-03-31T04:49:25.581Z,16.77
2019-03-31T04:51:52.922Z,21.97
2019-03-31T04:54:20.214Z,23.15
2019-03-31T04:56:47.579Z,16.55
2019-03-31T04:59:14.867Z,18.90
2019-03-31T05:01:42.101Z,25.27
2019-03-31T05:04:09.310Z,26.33
2019-03-31T05:06:36.536Z,25.40
2019-03-31T05:09:05.207Z,22.13
2019-03-31T05:11:32.431Z,21.37
2019-03-31T05:13:59.653Z,22.58
2019-03-31T05:16:26.894Z,21.23
2019-03-31T05:18:54.110Z,21.80
2019-03-31T05:21:21.331Z,15.95
2019-03-31T05:23:48.559Z,20.52
2019-03-31T05:26:15.794Z,21.17
2019-03-31T05:28:44.311Z,23.85
2019-03-31T05:31:11.612Z,21.75
2019-03-31T05:33:38.831Z,40.83
2019-03-31T05:36:06.059Z,26.70
2019-03-31T05:38:33.279Z,15.80
2019-03-31T05:41:00.498Z,16.00
2019-03-31T05:43:27.719Z,27.45
2019-03-31T05:45:54.943Z,18.67
2019-03-31T05:48:22.560Z,13.55
2019-03-31T05:50:49.774Z,19.17
2019-03-31T05:53:17.004Z,18.17
2019-03-31T05:55:44.229Z,19.30
2019-03-31T05:58:11.451Z,19.32
2019-03-31T06:00:40.488Z,18.37
2019-03-31T06:03:07.720Z,17.95
2019-03-31T06:05:34.936Z,23.18
2019-03-31T06:08:02.167Z,25.70
2019-03-31T06:10:29.379Z,19.42
2019-03-31T06:12:56.605Z,22.15
2019-03-31T06:15:23.818Z,21.02
2019-03-31T06:17:51.061Z,21.10
2019-03-31T06:20:18.279Z,17.25
2019-03-31T06:22:45.501Z,19.85
2019-03-31T06:25:12.774Z,18.90
2019-03-31T06:27:40.006Z,20.30
2019-03-31T06:30:08.844Z,17.20
2019-03-31T06:32:36.067Z,21.27
2019-03-31T06:35:04.563Z,20.37
2019-03-31T06:37:31.787Z,18.27
2019-03-31T06:39:59.003Z,20.27
2019-03-31T06:42:26.244Z,22.15
2019-03-31T06:44:53.454Z,18.67
2019-03-31T06:47:20.674Z,23.92
2019-03-31T06:49:47.890Z,17.70
2019-03-31T06:52:15.125Z,25.70
2019-03-31T06:54:42.330Z,23.90
2019-03-31T06:57:09.554Z,21.15
2019-03-31T06:59:36.776Z,21.55
2019-03-31T07:02:04.014Z,24.52
2019-03-31T07:04:31.230Z,18.20
2019-03-31T07:06:58.461Z,25.60
2019-03-31T07:09:25.706Z,23.73
2019-03-31T07:11:53.067Z,21.27
2019-03-31T07:14:20.292Z,21.62
2019-03-31T07:16:47.570Z,16.87
2019-03-31T07:19:14.792Z,22.60
2019-03-31T07:21:42.041Z,27.93
2019-03-31T07:24:09.274Z,27.42
2019-03-31T07:26:36.584Z,26.10
2019-03-31T07:29:04.123Z,23.32
2019-03-31T07:31:31.350Z,21.62
2019-03-31T07:33:58.769Z,18.73
2019-03-31T07:36:26.041Z,22.60
2019-03-31T07:38:53.269Z,19.43
2019-03-31T07:41:20.514Z,24.60
2019-03-31T07:43:47.795Z,20.17
2019-03-31T07:46:15.015Z,24.33
2019-03-31T07:48:42.553Z,20.87
2019-03-31T07:51:09.780Z,17.57
2019-03-31T07:53:37.004Z,23.33
2019-03-31T07:56:04.251Z,26.30
2019-03-31T07:58:31.486Z,36.27
2019-03-31T08:00:59.283Z,33.30
2019-03-31T08:03:26.511Z,76.33
2019-03-31T08:05:53.759Z,90.67
2019-03-31T08:08:20.978Z,84.90
2019-03-31T08:10:48.215Z,71.10
2019-03-31T08:13:16.157Z,62.23
2019-03-31T08:15:43.392Z,40.57
2019-03-31T08:18:10.735Z,46.17
2019-03-31T08:20:37.947Z,47.37
2019-03-31T08:23:05.188Z,45.07
2019-03-31T08:25:32.402Z,51.73
2019-03-31T08:27:59.640Z,38.60
2019-03-31T08:30:27.052Z,38.37
2019-03-31T08:32:54.379Z,35.87
2019-03-31T08:35:24.457Z,33.97
2019-03-31T08:37:54.619Z,37.77
2019-03-31T08:40:21.853Z,37.50
2019-03-31T08:42:49.113Z,38.60
2019-03-31T08:45:16.467Z,33.03
2019-03-31T08:47:43.699Z,40.53
2019-03-31T08:50:11.232Z,36.37
2019-03-31T08:52:38.497Z,38.07
2019-03-31T08:55:06.937Z,32.67
2019-03-31T08:57:34.426Z,36.47
2019-03-31T09:00:01.696Z,39.73
2019-03-31T09:02:35.361Z,35.93
2019-03-31T09:05:02.972Z,35.60
2019-03-31T09:07:30.204Z,38.63
2019-03-31T09:09:57.446Z,44.60
2019-03-31T09:12:24.708Z,35.37
2019-03-31T09:14:51.984Z,38.50
2019-03-31T09:17:19.333Z,37.93
2019-03-31T09:19:46.662Z,32.93
2019-03-31T09:22:13.944Z,33.10
2019-03-31T09:24:41.243Z,41.30
2019-03-31T09:27:14.278Z,35.03
2019-03-31T09:29:41.559Z,35.10
2019-03-31T09:32:08.779Z,35.30
2019-03-31T09:34:36.016Z,36.47
2019-03-31T09:37:03.303Z,31.60
2019-03-31T09:39:30.541Z,32.40
2019-03-31T09:41:57.919Z,28.70
2019-03-31T09:44:25.336Z,31.60
2019-03-31T09:46:52.588Z,36.53
2019-03-31T09:49:19.820Z,31.13
2019-03-31T09:51:47.065Z,39.93
2019-03-31T09:54:14.287Z,36.07
2019-03-31T09:56:41.515Z,37.07
2019-03-31T09:59:08.734Z,38.83
2019-03-31T10:01:36.286Z,35.97
2019-03-31T10:04:03.564Z,33.73
2019-03-31T10:06:31.764Z,33.70
2019-03-31T10:08:59.491Z,34.07
2019-03-31T10:11:26.723Z,43.10
2019-03-31T10:13:53.957Z,35.83
2019-03-31T10:16:21.198Z,41.77
2019-03-31T10:18:48.491Z,38.67
2019-03-31T10:21:15.722Z,35.37
2019-03-31T10:23:42.961Z,36.97
2019-03-31T10:26:10.196Z,45.70
2019-03-31T10:28:37.419Z,33.20
2019-03-31T10:31:04.647Z,30.80
2019-03-31T10:33:31.884Z,36.00
2019-03-31T10:35:59.116Z,42.90
2019-03-31T10:38:26.342Z,42.60
2019-03-31T10:40:53.671Z,36.43
2019-03-31T10:43:20.883Z,36.77
2019-03-31T10:45:48.117Z,35.57
2019-03-31T10:48:20.698Z,44.40
2019-03-31T10:50:44.291Z,37.63
2019-03-31T10:53:11.527Z,35.47
2019-03-31T10:55:38.750Z,33.80
2019-03-31T10:58:05.961Z,35.97
2019-03-31T11:00:36.971Z,34.63
2019-03-31T11:03:05.484Z,39.37
2019-03-31T11:05:32.792Z,43.27
2019-03-31T11:08:00.015Z,39.60
2019-03-31T11:10:27.315Z,35.73
2019-03-31T11:12:54.540Z,37.87
2019-03-31T11:15:21.770Z,39.80
2019-03-31T11:17:48.994Z,34.13
2019-03-31T11:20:16.228Z,41.97
2019-03-31T11:22:57.499Z,35.23
2019-03-31T11:25:28.948Z,40.60
2019-03-31T11:27:53.678Z,44.93
2019-03-31T11:30:20.931Z,36.93
2019-03-31T11:32:48.170Z,38.40
2019-03-31T11:35:15.399Z,33.80
2019-03-31T11:37:42.621Z,44.77
2019-03-31T11:40:10.130Z,39.30
2019-03-31T11:42:37.370Z,29.90
2019-03-31T11:45:06.135Z,35.53
2019-03-31T11:47:33.391Z,35.07
2019-03-31T11:50:00.726Z,34.00
2019-03-31T11:52:28.084Z,32.37
2019-03-31T11:54:55.367Z,34.00
2019-03-31T11:57:22.607Z,29.40
2019-03-31T11:59:49.970Z,37.10
2019-03-31T12:02:27.109Z,30.20
2019-03-31T12:04:46.274Z,26.60
2019-03-31T12:07:26.907Z,41.13
2019-03-31T12:09:42.581Z,29.20
2019-03-31T12:12:09.818Z,27.50
2019-03-31T12:14:37.028Z,25.90
2019-03-31T12:17:04.247Z,29.10
2019-03-31T12:19:31.470Z,25.60
2019-03-31T12:21:58.715Z,18.63
2019-03-31T12:24:25.973Z,25.60
2019-03-31T12:26:53.199Z,23.73
2019-03-31T12:29:20.419Z,23.20
2019-03-31T12:31:47.749Z,27.40
2019-03-31T12:34:14.956Z,19.07
2019-03-31T12:36:42.191Z,20.10
2019-03-31T12:39:09.419Z,22.73
2019-03-31T12:41:36.647Z,16.37
2019-03-31T12:44:04.043Z,12.10
2019-03-31T12:46:31.335Z,18.83
2019-03-31T12:48:58.611Z,17.33
2019-03-31T12:51:25.839Z,18.30
2019-03-31T12:53:53.081Z,18.77
2019-03-31T12:56:24.358Z,26.80
2019-03-31T12:58:51.575Z,17.43
2019-03-31T13:01:18.803Z,16.50
2019-03-31T13:03:46.059Z,18.37
2019-03-31T13:06:13.283Z,17.80
2019-03-31T13:08:40.519Z,13.03
2019-03-31T13:11:08.442Z,15.63
2019-03-31T13:13:35.696Z,14.93
2019-03-31T13:16:02.944Z,19.30
2019-03-31T13:18:30.240Z,16.77
2019-03-31T13:20:57.489Z,22.27
2019-03-31T13:23:24.709Z,23.17
2019-03-31T13:25:52.012Z,15.20
2019-03-31T13:28:19.311Z,18.07
2019-03-31T13:30:46.527Z,19.07
2019-03-31T13:33:13.760Z,15.87
2019-03-31T13:35:41.064Z,17.73
2019-03-31T13:38:11.218Z,13.63
2019-03-31T13:40:37.275Z,11.30
2019-03-31T13:43:04.572Z,11.43
2019-03-31T13:45:31.812Z,13.30
2019-03-31T13:47:59.145Z,13.73
2019-03-31T13:50:26.431Z,13.60
2019-03-31T13:52:53.677Z,12.87
2019-03-31T13:55:21.156Z,12.07
2019-03-31T13:57:49.385Z,12.90
2019-03-31T14:00:25.528Z,10.17
2019-03-31T14:02:47.711Z,10.27
2019-03-31T14:05:15.003Z,9.37
2019-03-31T14:07:42.257Z,13.57
2019-03-31T14:10:09.551Z,10.57
2019-03-31T14:12:36.796Z,12.10
2019-03-31T14:15:18.446Z,9.57
2019-03-31T14:17:35.707Z,15.90
2019-03-31T14:20:04.803Z,12.50
2019-03-31T14:22:32.132Z,12.03
2019-03-31T14:24:59.346Z,11.97
2019-03-31T14:27:26.635Z,8.87
2019-03-31T14:29:53.857Z,7.57
2019-03-31T14:32:21.078Z,7.73
2019-03-31T14:34:48.337Z,10.00
2019-03-31T14:37:15.637Z,8.60
2019-03-31T14:39:42.863Z,8.87
2019-03-31T14:42:12.472Z,6.37
2019-03-31T14:44:39.770Z,7.67
2019-03-31T14:47:07.068Z,9.23
2019-03-31T14:49:34.359Z,11.40
2019-03-31T14:52:01.731Z,7.10
2019-03-31T14:54:29.077Z,6.20
2019-03-31T14:56:56.300Z,7.53
2019-03-31T14:59:23.659Z,6.37
2019-03-31T15:01:52.755Z,9.07
2019-03-31T15:04:20.054Z,6.90
2019-03-31T15:06:47.294Z,6.33
2019-03-31T15:09:14.497Z,6.80
2019-03-31T15:11:41.841Z,6.10
2019-03-31T15:14:09.063Z,6.60
2019-03-31T15:16:48.300Z,5.87
2019-03-31T15:19:14.403Z,11.37
2019-03-31T15:21:44.607Z,6.70
2019-03-31T15:24:10.575Z,8.90
2019-03-31T15:26:37.799Z,7.03
2019-03-31T15:29:05.022Z,9.47
2019-03-31T15:31:32.235Z,9.40
2019-03-31T15:33:59.459Z,9.63
2019-03-31T15:36:26.679Z,7.33
2019-03-31T15:39:07.838Z,6.63
2019-03-31T15:41:22.890Z,6.43
2019-03-31T15:43:50.303Z,5.67
2019-03-31T15:46:17.538Z,7.63
2019-03-31T15:48:45.037Z,5.93
2019-03-31T15:51:12.386Z,7.00
2019-03-31T15:53:40.603Z,6.17
2019-03-31T15:56:07.827Z,8.23
2019-03-31T15:58:35.042Z,4.27
2019-03-31T16:01:02.356Z,8.63
2019-03-31T16:03:29.655Z,6.57
2019-03-31T16:05:57.032Z,6.57
2019-03-31T16:08:24.243Z,6.03
2019-03-31T16:10:51.459Z,6.47
2019-03-31T16:13:18.790Z,5.63
2019-03-31T16:15:46.004Z,7.63
2019-03-31T16:18:14.378Z,5.23
2019-03-31T16:20:41.639Z,16.73
2019-03-31T16:23:08.860Z,8.67
2019-03-31T16:25:37.716Z,5.70
2019-03-31T16:28:04.940Z,4.57
2019-03-31T16:30:34.745Z,17.43
2019-03-31T16:33:01.959Z,11.00
2019-03-31T16:35:29.178Z,6.20
2019-03-31T16:37:56.396Z,7.63
2019-03-31T16:40:23.753Z,7.67
2019-03-31T16:42:51.015Z,4.73
2019-03-31T16:45:18.281Z,12.57
2019-03-31T16:47:45.562Z,4.03
2019-03-31T16:50:12.882Z,5.13
2019-03-31T16:52:43.251Z,14.37
2019-03-31T16:55:10.545Z,7.40
2019-03-31T16:57:39.716Z,5.27
2019-03-31T17:00:07.695Z,4.73
2019-03-31T17:02:34.914Z,4.47
2019-03-31T17:05:02.533Z,12.73
2019-03-31T17:07:29.756Z,3.50
2019-03-31T17:09:57.023Z,5.60
2019-03-31T17:12:24.301Z,4.90
2019-03-31T17:14:51.773Z,3.50
2019-03-31T17:17:18.997Z,5.20
2019-03-31T17:19:46.207Z,7.40
2019-03-31T17:22:13.429Z,7.37
2019-03-31T17:24:40.636Z,7.50
2019-03-31T17:27:07.864Z,11.63
2019-03-31T17:29:35.119Z,8.30
2019-03-31T17:32:02.578Z,6.50
2019-03-31T17:34:29.895Z,10.70
2019-03-31T17:36:57.189Z,7.70
2019-03-31T17:39:24.835Z,7.50
2019-03-31T17:41:52.214Z,13.47
2019-03-31T17:44:19.434Z,12.23
2019-03-31T17:46:46.700Z,10.10
2019-03-31T17:49:13.923Z,7.77
2019-03-31T17:51:41.151Z,10.03
2019-03-31T17:54:08.380Z,10.47
2019-03-31T17:56:35.591Z,7.13
2019-03-31T17:59:03.096Z,10.10
2019-03-31T18:01:30.310Z,12.30
2019-03-31T18:03:57.549Z,8.93
2019-03-31T18:06:26.287Z,8.13
2019-03-31T18:08:53.516Z,8.40
2019-03-31T18:11:20.752Z,10.57
2019-03-31T18:13:47.979Z,14.10
2019-03-31T18:16:15.202Z,10.90
2019-03-31T18:34:57.537Z,9.33
2019-03-31T18:37:24.761Z,8.70
2019-03-31T18:39:51.974Z,9.47
2019-03-31T18:42:19.195Z,8.27
2019-03-31T18:44:46.415Z,12.90
2019-03-31T18:47:13.651Z,8.30
2019-03-31T18:49:40.864Z,14.97
2019-03-31T18:52:08.082Z,9.17
2019-03-31T18:54:48.901Z,9.53
2019-03-31T18:57:20.968Z,9.90
2019-03-31T19:00:08.333Z,10.67
2019-03-31T19:02:53.567Z,12.50
2019-03-31T19:05:28.367Z,12.67
2019-03-31T19:07:57.394Z,13.20
2019-03-31T19:10:49.392Z,11.07
2019-03-31T19:13:29.051Z,14.33
2019-03-31T19:15:58.008Z,10.97
2019-03-31T19:18:29.996Z,18.40
2019-03-31T19:21:11.407Z,13.47
2019-03-31T19:23:32.556Z,13.57
2019-03-31T19:26:04.094Z,13.60
2019-03-31T19:28:33.725Z,19.37
2019-03-31T19:31:02.683Z,22.10
2019-03-31T19:33:34.289Z,19.60
2019-03-31T19:36:18.510Z,25.67
2019-03-31T19:38:48.318Z,24.20
2019-03-31T19:41:17.180Z,21.07
2019-03-31T19:43:48.444Z,21.73
2019-03-31T19:46:17.302Z,16.70
2019-03-31T19:48:46.167Z,28.80
2019-03-31T19:51:15.028Z,18.13
2019-03-31T19:53:53.104Z,15.00
2019-03-31T19:56:24.932Z,18.30
2019-03-31T19:58:53.854Z,19.60
2019-03-31T20:01:25.459Z,18.73
2019-03-31T20:03:54.328Z,15.63
2019-03-31T20:06:23.179Z,16.63
2019-03-31T20:08:54.753Z,21.57
2019-03-31T20:11:29.537Z,19.83
2019-03-31T20:14:15.069Z,22.60
2019-03-31T20:16:46.720Z,27.23
2019-03-31T20:19:21.814Z,22.17
2019-03-31T20:21:53.354Z,14.20
2019-03-31T20:24:40.466Z,16.30
2019-03-31T20:27:11.827Z,19.50
2019-03-31T20:29:40.685Z,19.87
2019-03-31T20:32:12.535Z,19.30
2019-03-31T20:34:44.182Z,18.20
2019-03-31T20:37:22.216Z,18.97
2019-03-31T20:39:57.303Z,19.17
2019-03-31T20:42:28.940Z,23.70
2019-03-31T20:44:56.165Z,22.83
2019-03-31T20:47:23.380Z,17.33
2019-03-31T20:49:50.597Z,20.37
2019-03-31T20:52:17.822Z,23.40
2019-03-31T20:54:45.044Z,23.00
2019-03-31T20:57:12.261Z,26.83
2019-03-31T20:59:39.581Z,28.40
2019-03-31T21:02:06.782Z,23.03
2019-03-31T21:04:34.008Z,17.27
2019-03-31T21:07:01.230Z,28.83
2019-03-31T21:09:28.460Z,22.93
2019-03-31T21:11:55.698Z,24.67
2019-03-31T21:14:22.915Z,22.20
2019-03-31T21:16:50.144Z,22.87
2019-03-31T21:19:19.168Z,24.70
2019-03-31T21:21:47.130Z,24.43
2019-03-31T21:24:14.368Z,22.77
2019-03-31T21:26:41.580Z,25.53
2019-03-31T21:29:08.862Z,21.07
2019-03-31T21:31:36.167Z,33.37
2019-03-31T21:34:03.457Z,38.83
2019-03-31T21:36:30.699Z,22.90
2019-03-31T21:38:57.943Z,28.73
2019-03-31T21:41:25.168Z,28.03
2019-03-31T21:43:52.408Z,24.33
2019-03-31T21:46:19.622Z,22.67
2019-03-31T21:48:46.865Z,27.87
2019-03-31T21:51:14.096Z,31.37
2019-03-31T21:53:41.318Z,28.80
2019-03-31T21:56:08.539Z,25.93
2019-03-31T21:58:35.836Z,32.47
2019-03-31T22:01:03.111Z,27.63
2019-03-31T22:03:30.338Z,33.20
2019-03-31T22:05:57.576Z,30.70
2019-03-31T22:08:24.812Z,32.63
2019-03-31T22:10:52.036Z,37.73
2019-03-31T22:13:19.328Z,34.67
2019-03-31T22:15:46.560Z,35.40
2019-03-31T22:18:13.781Z,36.73
2019-03-31T22:20:41.008Z,38.73
2019-03-31T22:23:08.284Z,33.70
2019-03-31T22:25:35.582Z,44.83
2019-03-31T22:28:02.818Z,39.13
2019-03-31T22:30:30.047Z,40.63
2019-03-31T22:32:57.262Z,34.90
2019-03-31T22:35:24.490Z,35.07
2019-03-31T22:37:51.716Z,44.40
2019-03-31T22:40:20.490Z,40.50
2019-03-31T22:42:47.714Z,42.43
2019-03-31T22:45:14.947Z,41.30
2019-03-31T22:47:42.179Z,43.60
2019-03-31T22:50:09.476Z,41.27
2019-03-31T22:52:36.740Z,41.23
2019-03-31T22:55:05.501Z,39.43
2019-03-31T22:57:32.717Z,38.17
2019-03-31T22:59:59.943Z,47.77
2019-03-31T23:02:27.170Z,43.23
2019-03-31T23:04:54.479Z,40.83
2019-03-31T23:07:21.747Z,36.33
2019-03-31T23:09:48.970Z,56.73
2019-03-31T23:12:16.191Z,43.07
2019-03-31T23:14:43.714Z,48.47
2019-03-31T23:17:10.939Z,52.60
2019-03-31T23:19:38.164Z,50.80
2019-03-31T23:22:05.386Z,50.23
2019-03-31T23:24:32.610Z,51.17
2019-03-31T23:27:00.219Z,50.30
2019-03-31T23:29:27.444Z,55.13
2019-03-31T23:31:54.729Z,53.15
2019-03-31T23:34:21.953Z,49.48
2019-03-31T23:36:49.180Z,58.83
2019-03-31T23:39:16.407Z,53.13
2019-03-31T23:41:43.639Z,51.87
2019-03-31T23:44:10.855Z,58.40
2019-03-31T23:46:38.102Z,67.70
2019-03-31T23:49:05.334Z,55.95
2019-03-31T23:51:32.563Z,54.10
2019-03-31T23:53:59.785Z,57.03
2019-03-31T23:56:27.091Z,63.87
2019-03-31T23:58:54.325Z,65.70
